createdAt,value
2022-12-08T00:01:26.584Z,86.22
2022-12-08T00:03:59.930Z,85.91
2022-12-08T00:06:49.491Z,86.03
2022-12-08T00:09:25.981Z,85.89
2022-12-08T00:11:56.888Z,85.78
2022-12-08T00:14:27.789Z,86.26
2022-12-08T00:16:56.301Z,86.44
2022-12-08T00:19:25.225Z,86.48
2022-12-08T00:21:55.583Z,87.08
2022-12-08T00:24:24.983Z,86.24
2022-12-08T00:26:54.306Z,86.47
2022-12-08T00:29:23.688Z,86.15
2022-12-08T00:31:51.743Z,86.26
2022-12-08T00:34:20.256Z,86.28
2022-12-08T00:36:49.317Z,86.31
2022-12-08T00:39:20.186Z,86.42
2022-12-08T00:42:05.654Z,86.18
2022-12-08T00:44:34.267Z,86.78
2022-12-08T00:47:02.339Z,86.44
2022-12-08T00:49:30.582Z,85.92
2022-12-08T00:51:59.227Z,86.18
2022-12-08T00:54:28.856Z,86.00
2022-12-08T00:56:57.227Z,85.98
2022-12-08T00:59:26.745Z,86.06
2022-12-08T01:01:54.788Z,86.66
2022-12-08T01:04:24.362Z,87.03
2022-12-08T01:06:53.449Z,86.63
2022-12-08T01:09:21.651Z,87.08
2022-12-08T01:11:51.289Z,87.26
2022-12-08T01:14:19.314Z,87.55
2022-12-08T01:16:49.325Z,86.78
2022-12-08T01:19:17.508Z,87.24
2022-12-08T01:21:50.480Z,87.03
2022-12-08T01:24:20.869Z,87.19
2022-12-08T01:26:52.472Z,87.36
2022-12-08T01:29:21.380Z,86.91
2022-12-08T01:31:51.013Z,87.31
2022-12-08T01:34:20.922Z,87.78
2022-12-08T01:36:49.575Z,88.33
2022-12-08T01:39:19.614Z,88.16
2022-12-08T01:41:49.193Z,87.87
2022-12-08T01:44:57.863Z,87.72
2022-12-08T01:47:29.292Z,88.45
2022-12-08T01:49:57.283Z,88.03
2022-12-08T01:52:30.885Z,88.84
2022-12-08T01:55:02.407Z,88.75
2022-12-08T01:57:33.341Z,89.07
2022-12-08T02:00:10.137Z,89.18
2022-12-08T02:02:46.697Z,89.65
2022-12-08T02:05:15.600Z,89.59
2022-12-08T02:07:44.626Z,89.38
2022-12-08T02:10:15.963Z,89.22
2022-12-08T02:12:44.487Z,89.13
2022-12-08T02:15:15.164Z,89.59
2022-12-08T02:17:54.760Z,89.78
2022-12-08T02:20:34.607Z,89.29
2022-12-08T02:23:09.446Z,90.13
2022-12-08T02:25:54.452Z,90.19
2022-12-08T02:28:38.244Z,90.73
2022-12-08T02:31:15.080Z,90.54
2022-12-08T02:34:12.322Z,90.58
2022-12-08T02:36:47.947Z,90.39
2022-12-08T02:39:26.209Z,90.26
2022-12-08T02:42:03.962Z,90.10
2022-12-08T02:44:34.576Z,90.75
2022-12-08T02:47:07.464Z,90.57
2022-12-08T02:49:39.977Z,90.97
2022-12-08T02:52:26.049Z,91.17
2022-12-08T02:54:56.399Z,90.51
2022-12-08T02:57:31.836Z,90.38
2022-12-08T03:00:09.254Z,90.94
2022-12-08T03:02:44.795Z,90.69
2022-12-08T03:05:23.748Z,91.10
2022-12-08T03:07:57.929Z,91.42
2022-12-08T03:10:31.921Z,91.43
2022-12-08T03:13:04.040Z,91.47
2022-12-08T03:15:34.133Z,91.80
2022-12-08T03:18:02.308Z,91.06
2022-12-08T03:20:32.278Z,91.63
2022-12-08T03:23:03.402Z,90.95
2022-12-08T03:25:38.470Z,91.61
2022-12-08T03:28:10.666Z,91.08
2022-12-08T03:30:40.992Z,90.53
2022-12-08T03:33:17.224Z,90.44
2022-12-08T03:35:47.544Z,91.19
2022-12-08T03:38:18.751Z,90.38
2022-12-08T03:41:12.118Z,90.55
2022-12-08T03:43:41.416Z,91.49
2022-12-08T03:46:09.400Z,91.48
2022-12-08T03:48:38.504Z,91.94
2022-12-08T03:51:08.034Z,91.72
2022-12-08T03:53:36.365Z,91.30
2022-12-08T03:56:05.710Z,91.53
2022-12-08T03:58:37.657Z,92.53
2022-12-08T04:01:06.482Z,91.48
2022-12-08T04:03:34.896Z,90.79
2022-12-08T04:06:03.491Z,91.36
2022-12-08T04:08:32.807Z,91.09
2022-12-08T04:11:01.888Z,90.59
2022-12-08T04:13:31.631Z,91.33
2022-12-08T04:16:00.781Z,91.63
2022-12-08T04:18:28.840Z,91.37
2022-12-08T04:20:57.360Z,91.51
2022-12-08T04:23:25.835Z,92.49
2022-12-08T04:25:55.427Z,91.63
2022-12-08T04:28:23.681Z,90.87
2022-12-08T04:30:52.057Z,91.39
2022-12-08T04:33:20.047Z,91.00
2022-12-08T04:35:48.200Z,91.90
2022-12-08T04:38:19.818Z,91.01
2022-12-08T04:40:47.828Z,91.64
2022-12-08T04:43:18.161Z,91.28
2022-12-08T04:45:47.283Z,92.45
2022-12-08T04:48:15.759Z,91.69
2022-12-08T04:50:47.005Z,92.24
2022-12-08T04:53:15.348Z,91.54
2022-12-08T04:55:48.490Z,92.40
2022-12-08T04:58:22.068Z,92.20
2022-12-08T05:00:53.355Z,91.77
2022-12-08T05:03:28.574Z,92.01
2022-12-08T05:05:57.309Z,91.28
2022-12-08T05:08:25.615Z,91.44
2022-12-08T05:10:53.768Z,92.24
2022-12-08T05:13:23.280Z,92.38
2022-12-08T05:15:51.619Z,92.49
2022-12-08T05:18:20.004Z,92.09
2022-12-08T05:20:48.103Z,92.24
2022-12-08T05:23:17.536Z,92.00
2022-12-08T05:25:46.481Z,91.80
2022-12-08T05:28:40.094Z,92.80
2022-12-08T05:31:04.880Z,91.96
2022-12-08T05:33:35.280Z,91.83
2022-12-08T05:36:03.880Z,92.23
2022-12-08T05:38:34.711Z,92.54
2022-12-08T05:41:04.357Z,91.98
2022-12-08T05:43:34.088Z,91.67
2022-12-08T05:46:02.434Z,92.16
2022-12-08T05:48:32.355Z,91.94
2022-12-08T05:51:01.023Z,91.10
2022-12-08T05:53:29.502Z,91.67
2022-12-08T05:55:57.728Z,91.65
2022-12-08T05:58:25.884Z,92.37
2022-12-08T06:00:53.888Z,92.00
2022-12-08T06:03:22.316Z,91.95
2022-12-08T06:05:53.280Z,91.76
2022-12-08T06:08:21.799Z,91.41
2022-12-08T06:10:52.511Z,91.49
2022-12-08T06:13:21.904Z,91.49
2022-12-08T06:15:52.742Z,92.21
2022-12-08T06:18:29.656Z,91.47
2022-12-08T06:21:06.522Z,92.34
2022-12-08T06:23:35.003Z,92.20
2022-12-08T06:26:04.233Z,91.97
2022-12-08T06:28:36.018Z,91.42
2022-12-08T06:31:10.179Z,91.72
2022-12-08T06:33:38.840Z,91.39
2022-12-08T06:36:10.964Z,91.79
2022-12-08T06:38:43.356Z,91.99
2022-12-08T06:41:17.564Z,92.31
2022-12-08T06:43:47.121Z,92.28
2022-12-08T06:46:18.696Z,92.13
2022-12-08T06:48:48.616Z,91.66
2022-12-08T06:51:19.802Z,91.33
2022-12-08T06:53:48.404Z,91.17
2022-12-08T06:56:19.881Z,90.96
2022-12-08T06:58:52.464Z,90.72
2022-12-08T07:01:21.216Z,90.84
2022-12-08T07:03:49.696Z,91.07
2022-12-08T07:06:23.642Z,91.12
2022-12-08T07:08:52.096Z,91.22
2022-12-08T07:11:22.795Z,91.08
2022-12-08T07:13:51.602Z,91.68
2022-12-08T07:16:19.833Z,91.11
2022-12-08T07:18:47.870Z,90.49
2022-12-08T07:21:16.592Z,90.53
2022-12-08T07:23:54.234Z,90.39
2022-12-08T07:26:24.468Z,90.25
2022-12-08T07:28:52.873Z,91.37
2022-12-08T07:31:25.702Z,90.70
2022-12-08T07:33:54.199Z,91.20
2022-12-08T07:36:23.245Z,90.70
2022-12-08T07:38:53.351Z,91.04
2022-12-08T07:41:23.706Z,91.02
2022-12-08T07:43:53.402Z,91.17
2022-12-08T07:46:24.036Z,90.55
2022-12-08T07:48:52.890Z,90.92
2022-12-08T07:51:21.113Z,90.03
2022-12-08T07:53:54.084Z,89.98
2022-12-08T07:56:24.691Z,90.41
2022-12-08T07:58:54.402Z,90.46
2022-12-08T08:01:26.310Z,90.11
2022-12-08T08:03:56.426Z,90.53
2022-12-08T08:06:25.255Z,89.74
2022-12-08T08:08:53.350Z,90.62
2022-12-08T08:11:25.469Z,90.00
2022-12-08T08:13:54.996Z,90.13
2022-12-08T08:16:23.634Z,90.26
2022-12-08T08:18:52.498Z,89.58
2022-12-08T08:21:44.274Z,89.35
2022-12-08T08:24:10.956Z,90.56
2022-12-08T08:26:39.235Z,90.41
2022-12-08T08:29:09.805Z,89.79
2022-12-08T08:31:40.102Z,89.78
2022-12-08T08:34:09.324Z,89.62
2022-12-08T08:36:40.234Z,89.34
2022-12-08T08:39:09.911Z,89.74
2022-12-08T08:41:38.816Z,90.18
2022-12-08T08:44:08.425Z,89.08
2022-12-08T08:46:37.072Z,89.57
2022-12-08T08:49:07.031Z,89.88
2022-12-08T08:51:35.343Z,90.41
2022-12-08T08:54:03.954Z,89.89
2022-12-08T08:56:32.032Z,90.07
2022-12-08T08:59:00.521Z,89.98
2022-12-08T09:01:35.180Z,89.69
2022-12-08T09:04:04.596Z,89.50
2022-12-08T09:06:33.176Z,89.59
2022-12-08T09:09:01.421Z,89.68
2022-12-08T09:11:30.847Z,89.13
2022-12-08T09:14:00.343Z,90.03
2022-12-08T09:16:33.355Z,88.32
2022-12-08T09:19:03.965Z,88.98
2022-12-08T09:21:36.583Z,88.41
2022-12-08T09:24:07.020Z,87.87
2022-12-08T09:26:35.934Z,87.48
2022-12-08T09:29:05.226Z,87.32
2022-12-08T09:31:35.749Z,87.26
2022-12-08T09:34:06.560Z,87.12
2022-12-08T09:36:37.237Z,87.07
2022-12-08T09:39:08.013Z,87.84
2022-12-08T09:41:44.805Z,87.58
2022-12-08T09:44:43.459Z,87.99
2022-12-08T09:47:19.815Z,87.84
2022-12-08T09:49:57.879Z,89.06
2022-12-08T09:52:29.551Z,87.37
2022-12-08T09:55:00.529Z,87.01
2022-12-08T09:57:32.044Z,87.04
2022-12-08T10:00:04.570Z,86.64
2022-12-08T10:02:38.944Z,86.26
2022-12-08T10:05:09.033Z,86.24
2022-12-08T10:07:42.664Z,86.62
2022-12-08T10:10:21.100Z,86.02
2022-12-08T10:12:54.792Z,85.98
2022-12-08T10:15:43.255Z,85.61
2022-12-08T10:18:16.665Z,85.56
2022-12-08T10:20:47.600Z,86.32
2022-12-08T10:23:24.171Z,86.24
2022-12-08T10:25:57.566Z,86.66
2022-12-08T10:28:25.734Z,87.37
2022-12-08T10:30:55.093Z,87.21
2022-12-08T10:33:24.992Z,87.14
2022-12-08T10:35:56.264Z,88.09
2022-12-08T10:38:28.141Z,87.73
2022-12-08T10:41:02.803Z,87.29
2022-12-08T10:43:32.360Z,87.75
2022-12-08T10:46:10.413Z,88.02
2022-12-08T10:48:49.036Z,87.71
2022-12-08T10:51:24.737Z,87.63
2022-12-08T10:53:53.848Z,87.68
2022-12-08T10:56:26.758Z,87.36
2022-12-08T10:59:14.637Z,87.97
2022-12-08T11:01:49.888Z,88.34
2022-12-08T11:04:22.703Z,88.70
2022-12-08T11:06:52.961Z,88.54
2022-12-08T11:09:49.802Z,88.56
2022-12-08T11:12:19.861Z,88.68
2022-12-08T11:14:52.064Z,87.99
2022-12-08T11:17:27.266Z,89.06
2022-12-08T11:20:03.793Z,88.97
2022-12-08T11:22:37.040Z,88.86
2022-12-08T11:25:14.195Z,89.20
2022-12-08T11:27:46.024Z,89.97
2022-12-08T11:30:18.139Z,88.84
2022-12-08T11:32:52.244Z,89.61
2022-12-08T11:35:25.460Z,90.20
2022-12-08T11:38:03.356Z,89.94
2022-12-08T11:40:45.604Z,90.75
2022-12-08T11:43:17.688Z,89.95
2022-12-08T11:45:46.229Z,90.47
2022-12-08T11:48:20.077Z,89.52
2022-12-08T11:50:54.267Z,90.27
2022-12-08T11:53:29.107Z,90.94
2022-12-08T11:55:59.798Z,90.12
2022-12-08T11:58:30.599Z,90.47
2022-12-08T12:00:59.719Z,90.10
2022-12-08T12:03:32.550Z,90.05
2022-12-08T12:06:24.261Z,89.29
2022-12-08T12:09:11.917Z,89.54
2022-12-08T12:12:04.736Z,89.64
2022-12-08T12:14:55.064Z,90.38
2022-12-08T12:17:36.206Z,90.07
2022-12-08T12:20:14.323Z,89.23
2022-12-08T12:22:46.044Z,89.88
2022-12-08T12:25:19.427Z,89.84
2022-12-08T12:27:51.230Z,89.55
2022-12-08T12:30:34.315Z,90.20
2022-12-08T12:33:03.968Z,90.28
2022-12-08T12:35:36.066Z,89.81
2022-12-08T12:38:28.643Z,89.79
2022-12-08T12:41:05.972Z,89.48
2022-12-08T12:43:38.187Z,90.17
2022-12-08T12:46:42.019Z,90.46
2022-12-08T12:49:48.744Z,89.66
2022-12-08T12:52:44.643Z,90.90
2022-12-08T12:55:29.809Z,90.34
2022-12-08T12:57:59.544Z,90.17
2022-12-08T13:00:29.734Z,90.35
2022-12-08T13:02:59.819Z,90.70
2022-12-08T13:05:30.454Z,90.18
2022-12-08T13:08:01.386Z,90.32
2022-12-08T13:10:37.127Z,89.96
2022-12-08T13:13:17.683Z,90.71
2022-12-08T13:15:52.436Z,90.45
2022-12-08T13:18:26.331Z,89.42
2022-12-08T13:21:05.109Z,90.09
2022-12-08T13:23:48.125Z,89.94
2022-12-08T13:26:20.911Z,90.52
2022-12-08T13:29:19.682Z,90.81
2022-12-08T13:31:52.155Z,90.51
2022-12-08T13:34:23.525Z,90.61
2022-12-08T13:36:58.859Z,90.57
2022-12-08T13:39:33.163Z,90.08
2022-12-08T13:42:08.952Z,90.10
2022-12-08T13:47:35.067Z,90.55
2022-12-08T13:58:40.790Z,90.99
2022-12-08T14:01:15.491Z,91.14
2022-12-08T14:04:21.695Z,91.08
2022-12-08T14:06:40.539Z,90.62
2022-12-08T14:09:12.172Z,91.20
2022-12-08T14:11:42.433Z,91.63
2022-12-08T14:14:32.781Z,91.83
2022-12-08T14:17:10.545Z,90.82
2022-12-08T14:19:39.113Z,91.42
2022-12-08T14:22:12.134Z,90.89
2022-12-08T14:24:40.855Z,89.99
2022-12-08T14:27:12.801Z,90.20
2022-12-08T14:29:45.141Z,90.04
2022-12-08T14:32:25.955Z,89.15
2022-12-08T14:34:55.530Z,89.13
2022-12-08T14:37:26.656Z,90.10
2022-12-08T14:39:59.207Z,90.43
2022-12-08T14:42:28.781Z,89.93
2022-12-08T14:45:00.932Z,90.56
2022-12-08T14:47:35.530Z,90.59
2022-12-08T14:50:06.888Z,89.80
2022-12-08T14:52:35.175Z,89.77
2022-12-08T14:55:08.837Z,89.96
2022-12-08T14:57:37.590Z,90.47
2022-12-08T15:00:20.384Z,89.64
2022-12-08T15:02:49.795Z,88.44
2022-12-08T15:05:21.074Z,87.71
2022-12-08T15:07:54.165Z,87.45
2022-12-08T15:10:27.248Z,87.32
2022-12-08T15:13:08.906Z,89.36
2022-12-08T15:15:58.842Z,88.12
2022-12-08T15:18:36.669Z,88.49
2022-12-08T15:21:06.773Z,88.69
2022-12-08T15:23:42.651Z,89.12
2022-12-08T15:26:20.897Z,88.51
2022-12-08T15:28:49.291Z,88.29
2022-12-08T15:31:19.186Z,87.83
2022-12-08T15:33:49.190Z,88.53
2022-12-08T15:36:19.276Z,87.75
2022-12-08T15:38:54.502Z,88.26
2022-12-08T15:41:23.803Z,86.83
2022-12-08T15:43:53.378Z,87.55
2022-12-08T15:46:24.177Z,88.34
2022-12-08T15:48:57.905Z,87.08
2022-12-08T15:51:29.688Z,87.64
2022-12-08T15:54:10.681Z,87.35
2022-12-08T15:57:10.482Z,86.99
2022-12-08T15:59:33.245Z,87.28
2022-12-08T16:02:06.079Z,87.41
2022-12-08T16:07:28.512Z,88.37
2022-12-08T16:10:00.192Z,88.25
2022-12-08T16:13:54.887Z,88.16
2022-12-08T16:15:53.437Z,88.60
2022-12-08T16:18:28.733Z,88.38
2022-12-08T16:21:31.565Z,88.30
2022-12-08T16:23:47.637Z,88.46
2022-12-08T16:29:06.007Z,87.90
2022-12-08T16:31:36.420Z,88.01
2022-12-08T16:34:06.114Z,87.47
2022-12-08T16:36:34.605Z,87.45
2022-12-08T16:39:03.464Z,86.85
2022-12-08T16:41:53.279Z,87.45
2022-12-08T16:44:21.943Z,87.58
2022-12-08T16:46:50.180Z,87.02
2022-12-08T16:49:20.266Z,87.04
2022-12-08T16:51:51.194Z,86.36
2022-12-08T16:54:20.950Z,86.61
2022-12-08T16:56:51.852Z,87.62
2022-12-08T16:59:20.201Z,86.02
2022-12-08T17:01:48.694Z,86.07
2022-12-08T17:04:31.412Z,86.19
2022-12-08T17:07:00.334Z,86.17
2022-12-08T17:09:30.753Z,86.10
2022-12-08T17:12:03.753Z,86.29
2022-12-08T17:14:35.400Z,86.78
2022-12-08T17:17:03.762Z,85.11
2022-12-08T17:19:33.512Z,84.89
2022-12-08T17:22:04.114Z,85.57
2022-12-08T17:24:33.083Z,85.58
2022-12-08T17:27:04.223Z,85.49
2022-12-08T17:29:32.899Z,86.11
2022-12-08T17:32:01.081Z,85.18
2022-12-08T17:34:29.375Z,86.65
2022-12-08T17:36:58.749Z,85.24
2022-12-08T17:39:27.940Z,86.25
2022-12-08T17:41:56.065Z,86.75
2022-12-08T17:44:27.995Z,86.85
2022-12-08T17:46:58.075Z,86.70
2022-12-08T17:49:29.593Z,87.27
2022-12-08T17:52:01.091Z,87.18
2022-12-08T17:54:30.113Z,86.67
2022-12-08T17:56:59.432Z,87.71
2022-12-08T17:59:28.950Z,87.37
2022-12-08T18:01:59.720Z,87.50
2022-12-08T18:04:29.213Z,87.29
2022-12-08T18:07:03.455Z,87.81
2022-12-08T18:09:32.720Z,88.10
2022-12-08T18:12:02.041Z,86.95
2022-12-08T18:14:30.063Z,86.56
2022-12-08T18:16:58.182Z,87.64
2022-12-08T18:19:26.519Z,86.29
2022-12-08T18:21:55.333Z,87.02
2022-12-08T18:24:25.950Z,86.73
2022-12-08T18:26:55.352Z,86.45
2022-12-08T18:29:26.569Z,86.17
2022-12-08T18:31:57.114Z,85.63
2022-12-08T18:34:26.975Z,86.10
2022-12-08T18:37:20.998Z,85.45
2022-12-08T18:39:51.895Z,85.45
2022-12-08T18:42:24.638Z,85.24
2022-12-08T18:44:53.579Z,85.94
2022-12-08T18:47:26.909Z,85.22
2022-12-08T18:49:55.130Z,85.60
2022-12-08T18:52:29.606Z,86.55
2022-12-08T18:55:09.511Z,86.44
2022-12-08T18:57:39.312Z,86.61
2022-12-08T19:00:09.642Z,86.21
2022-12-08T19:02:38.882Z,86.84
2022-12-08T19:05:09.608Z,86.05
2022-12-08T19:07:39.489Z,86.91
2022-12-08T19:10:14.143Z,86.70
2022-12-08T19:12:45.248Z,86.66
2022-12-08T19:15:13.615Z,86.53
2022-12-08T19:17:42.981Z,86.92
2022-12-08T19:20:12.056Z,86.77
2022-12-08T19:22:40.189Z,86.24
2022-12-08T19:25:13.535Z,86.19
2022-12-08T19:27:42.245Z,85.28
2022-12-08T19:30:12.139Z,84.70
2022-12-08T19:32:40.535Z,84.72
2022-12-08T19:35:09.892Z,85.05
2022-12-08T19:37:38.275Z,84.58
2022-12-08T19:40:25.866Z,84.80
2022-12-08T19:43:14.095Z,84.60
2022-12-08T19:45:42.886Z,84.19
2022-12-08T19:48:14.965Z,83.09
2022-12-08T19:50:42.951Z,82.71
2022-12-08T19:53:12.821Z,83.05
2022-12-08T19:55:43.260Z,83.30
2022-12-08T19:58:13.887Z,83.22
2022-12-08T20:00:42.522Z,82.97
2022-12-08T20:03:14.575Z,83.08
2022-12-08T20:05:43.102Z,83.97
2022-12-08T20:08:13.367Z,83.04
2022-12-08T20:10:43.125Z,84.51
2022-12-08T20:13:38.851Z,84.23
2022-12-08T20:16:09.948Z,84.68
2022-12-08T20:18:38.920Z,84.99
2022-12-08T20:21:14.940Z,84.72
2022-12-08T20:23:45.433Z,84.31
2022-12-08T20:26:14.299Z,84.98
2022-12-08T20:28:44.534Z,84.21
2022-12-08T20:31:19.287Z,84.97
2022-12-08T20:33:49.689Z,85.25
2022-12-08T20:36:20.138Z,84.67
2022-12-08T20:38:48.750Z,84.45
2022-12-08T20:41:17.585Z,84.78
2022-12-08T20:43:48.933Z,85.59
2022-12-08T20:46:18.693Z,85.32
2022-12-08T20:48:47.509Z,85.31
2022-12-08T20:51:17.743Z,85.17
2022-12-08T20:53:48.996Z,84.91
2022-12-08T20:56:19.677Z,84.39
2022-12-08T20:58:50.161Z,84.49
2022-12-08T21:01:21.654Z,84.91
2022-12-08T21:03:52.734Z,85.15
2022-12-08T21:06:25.361Z,84.85
2022-12-08T21:09:00.735Z,85.63
2022-12-08T21:11:29.208Z,85.18
2022-12-08T21:14:00.056Z,85.37
2022-12-08T21:16:29.985Z,85.22
2022-12-08T21:18:59.490Z,85.75
2022-12-08T21:21:27.467Z,85.77
2022-12-08T21:24:02.880Z,85.51
2022-12-08T21:26:32.469Z,85.91
2022-12-08T21:29:02.058Z,86.07
2022-12-08T21:31:32.768Z,85.46
2022-12-08T21:34:02.823Z,85.86
2022-12-08T21:36:34.763Z,86.22
2022-12-08T21:39:10.902Z,85.89
2022-12-08T21:42:01.619Z,86.03
2022-12-08T21:44:41.095Z,86.44
2022-12-08T21:47:12.185Z,85.56
2022-12-08T21:49:45.084Z,86.07
2022-12-08T21:52:25.099Z,86.36
2022-12-08T21:54:57.804Z,85.75
2022-12-08T21:57:27.862Z,85.63
2022-12-08T22:00:00.085Z,86.00
2022-12-08T22:02:29.382Z,85.84
2022-12-08T22:04:58.858Z,85.96
2022-12-08T22:07:27.974Z,85.96
2022-12-08T22:10:00.290Z,86.12
2022-12-08T22:12:28.806Z,85.96
2022-12-08T22:14:59.191Z,86.44
2022-12-08T22:17:27.409Z,86.00
2022-12-08T22:19:56.584Z,85.59
2022-12-08T22:22:25.013Z,85.71
2022-12-08T22:24:55.037Z,86.02
2022-12-08T22:27:23.310Z,86.25
2022-12-08T22:29:55.678Z,86.01
2022-12-08T22:32:25.564Z,86.66
2022-12-08T22:34:57.911Z,86.40
2022-12-08T22:37:26.821Z,86.82
2022-12-08T22:39:56.381Z,86.43
2022-12-08T22:42:24.683Z,86.95
2022-12-08T22:44:53.778Z,87.14
2022-12-08T22:47:21.911Z,86.92
2022-12-08T22:49:51.352Z,87.62
2022-12-08T22:52:19.513Z,86.95
2022-12-08T22:54:47.801Z,87.32
2022-12-08T22:57:16.955Z,87.51
2022-12-08T22:59:46.232Z,87.04
2022-12-08T23:02:16.063Z,87.29
2022-12-08T23:04:46.373Z,87.62
2022-12-08T23:07:16.479Z,87.14
2022-12-08T23:09:44.564Z,86.95
2022-12-08T23:12:13.630Z,87.43
2022-12-08T23:14:44.563Z,87.49
2022-12-08T23:17:12.684Z,87.67
2022-12-08T23:19:41.873Z,87.74
2022-12-08T23:22:10.559Z,88.38
2022-12-08T23:24:43.754Z,87.27
2022-12-08T23:27:12.944Z,87.84
2022-12-08T23:29:41.754Z,86.88
2022-12-08T23:32:09.887Z,87.11
2022-12-08T23:34:38.032Z,87.05
2022-12-08T23:37:07.699Z,87.59
2022-12-08T23:39:37.405Z,87.49
2022-12-08T23:42:08.723Z,86.68
2022-12-08T23:44:37.172Z,86.86
2022-12-08T23:47:13.330Z,87.16
2022-12-08T23:49:42.131Z,86.88
2022-12-08T23:52:15.099Z,87.07
2022-12-08T23:54:44.468Z,86.90
2022-12-08T23:57:13.976Z,87.61
2022-12-08T23:59:45.442Z,87.61
